createdAt,value
2023-04-18T00:25:19.483Z,7.44
2023-04-18T00:30:28.693Z,7.5
2023-04-18T00:35:38.495Z,7.5
2023-04-18T00:40:48.140Z,7.25
2023-04-18T00:46:00.563Z,7.38
2023-04-18T00:51:09.579Z,7.31
2023-04-18T00:56:18.042Z,6.94
2023-04-18T01:17:58.615Z,6.81
2023-04-18T01:23:08.381Z,6.69
2023-04-18T01:28:16.813Z,6.75
2023-04-18T01:33:25.236Z,6.81
2023-04-18T01:38:34.357Z,6.69
2023-04-18T01:43:43.499Z,6.81
2023-04-18T01:48:53.260Z,6.69
2023-04-18T01:54:02.364Z,6.81
2023-04-18T01:59:10.861Z,6.75
2023-04-18T02:04:20.039Z,6.56
2023-04-18T02:09:28.461Z,6.38
2023-04-18T02:14:38.201Z,6.56
2023-04-18T02:19:47.965Z,6.38
2023-04-18T02:24:56.468Z,6.25
2023-04-18T02:30:04.935Z,6.44
2023-04-18T02:35:14.683Z,6.5
2023-04-18T02:40:24.480Z,6.75
2023-04-18T02:45:34.235Z,6.56
2023-04-18T02:50:44.599Z,6.5
2023-04-18T02:55:55.012Z,6.38
2023-04-18T03:01:04.168Z,6.44
2023-04-18T03:06:13.236Z,6.25
2023-04-18T03:11:22.408Z,6.38
2023-04-18T03:16:30.250Z,6.12
2023-04-18T03:21:39.990Z,6.12
2023-04-18T03:26:48.453Z,6
2023-04-18T03:31:56.923Z,6.12
2023-04-18T03:37:06.051Z,6
2023-04-18T03:42:15.815Z,6.19
2023-04-18T03:47:24.301Z,6
2023-04-18T03:52:33.404Z,6.12
2023-04-18T03:57:42.549Z,6.25
2023-04-18T04:02:51.909Z,6.12
2023-04-18T04:08:02.146Z,6.06
2023-04-18T04:13:10.526Z,6.19
2023-04-18T04:18:19.649Z,6.19
2023-04-18T04:23:29.411Z,6.25
2023-04-18T04:28:37.889Z,6.31
2023-04-18T04:33:47.655Z,6.31
2023-04-18T04:38:56.136Z,6.25
2023-04-18T04:44:04.604Z,6.25
2023-04-18T05:30:29.354Z,6.38
2023-04-18T05:35:37.812Z,6.38
2023-04-18T05:40:46.865Z,6.56
2023-04-18T05:45:58.074Z,6.62
2023-04-18T05:51:06.388Z,6.62
2023-04-18T05:56:16.120Z,6.75
2023-04-18T06:01:24.632Z,6.62
2023-04-18T06:06:33.734Z,6.75
2023-04-18T06:11:42.214Z,6.69
2023-04-18T06:16:51.969Z,6.88
2023-04-18T06:22:00.461Z,6.81
2023-04-18T06:27:28.202Z,6.75
2023-04-18T06:32:20.683Z,6.88
2023-04-18T06:37:30.367Z,6.75
2023-04-18T06:42:40.127Z,6.81
2023-04-18T06:47:48.703Z,7
2023-04-18T06:52:57.084Z,7.06
2023-04-18T06:58:06.846Z,6.94
2023-04-18T07:03:16.964Z,6.94
2023-04-18T07:08:26.375Z,7.12
2023-04-18T07:13:36.149Z,7.12
2023-04-18T07:18:45.291Z,7.12
2023-04-18T07:23:54.356Z,6.81
2023-04-18T07:29:04.136Z,7.19
2023-04-18T07:34:14.184Z,7.06
2023-04-18T07:39:21.779Z,7.19
2023-04-18T07:44:30.198Z,7.5
2023-04-18T07:49:38.691Z,7.38
2023-04-18T07:54:47.170Z,7.44
2023-04-18T07:59:55.646Z,7.31
2023-04-18T08:05:05.635Z,7.38
2023-04-18T08:10:14.526Z,7.56
2023-04-18T08:15:24.292Z,7.56
2023-04-18T08:20:34.208Z,7.56
2023-04-18T08:25:43.838Z,7.75
2023-04-18T09:06:56.787Z,7.56
2023-04-18T09:12:05.976Z,7.44
2023-04-18T09:17:15.639Z,7.62
2023-04-18T09:22:23.504Z,7.62
2023-04-18T09:27:32.622Z,7.75
2023-04-18T09:32:41.160Z,8
2023-04-18T09:37:50.856Z,7.88
2023-04-18T09:42:59.332Z,8.12
2023-04-18T09:48:08.519Z,8.38
2023-04-18T09:53:21.126Z,8.44
2023-04-18T09:58:28.609Z,8.44
2023-04-18T10:03:38.022Z,8.44
2023-04-18T10:08:46.220Z,8.25
2023-04-18T10:13:54.678Z,9.06
2023-04-18T10:19:03.819Z,9.06
2023-04-18T10:24:14.551Z,9.06
2023-04-18T10:29:22.696Z,9.44
2023-04-18T10:34:32.445Z,9.56
2023-04-18T10:39:41.563Z,9.88
2023-04-18T10:44:50.697Z,10.12
2023-04-18T10:49:59.836Z,10
2023-04-18T10:55:09.575Z,10.06
2023-04-18T11:00:19.329Z,10.12
2023-04-18T11:05:29.116Z,10.25
2023-04-18T11:10:38.848Z,10
2023-04-18T11:15:47.978Z,10.38
2023-04-18T11:20:57.089Z,10.44
2023-04-18T11:26:05.586Z,10.5
2023-04-18T11:31:15.344Z,10.44
2023-04-18T11:36:24.444Z,10.56
2023-04-18T11:41:33.563Z,11.06
2023-04-18T11:46:43.318Z,10.44
2023-04-18T11:51:51.159Z,10.31
2023-04-18T11:57:01.577Z,11.06
2023-04-18T12:02:17.090Z,10.94
2023-04-18T12:32:49.451Z,10.81
2023-04-18T12:37:58.636Z,11.38
2023-04-18T12:43:07.092Z,10.88
2023-04-18T12:48:17.402Z,11.31
2023-04-18T12:53:26.525Z,11.38
2023-04-18T12:58:35.013Z,11.38
2023-04-18T13:03:51.038Z,11.69
2023-04-18T13:08:54.525Z,11.69
2023-04-18T13:14:04.957Z,11.81
2023-04-18T13:19:15.752Z,11.69
2023-04-18T13:24:24.455Z,11.69
2023-04-18T13:29:34.842Z,11.69
2023-04-18T13:34:43.348Z,11.75
2023-04-18T13:39:51.809Z,12
2023-04-18T13:45:00.315Z,12.5
2023-04-18T13:50:10.268Z,12.12
2023-04-18T13:55:19.831Z,12.56
2023-04-18T14:00:28.285Z,12.69
2023-04-18T14:05:38.687Z,12.69
2023-04-18T14:10:48.439Z,12.5
2023-04-18T14:15:58.943Z,12.44
2023-04-18T14:21:15.651Z,12.44
2023-04-18T14:26:26.054Z,12.56
2023-04-18T14:31:34.605Z,12.88
2023-04-18T14:36:43.623Z,12.62
2023-04-18T14:41:54.051Z,12.56
2023-04-18T14:47:02.707Z,12.62
2023-04-18T14:52:12.940Z,12.69
2023-04-18T14:57:22.694Z,12.94
2023-04-18T15:02:32.376Z,12.62
2023-04-18T15:07:40.292Z,12.75
2023-04-18T15:12:51.971Z,12.88
2023-04-18T15:18:00.505Z,12.94
2023-04-18T15:23:08.920Z,12.69
2023-04-18T15:28:18.069Z,12.94
2023-04-18T15:33:26.551Z,12.5
2023-04-18T15:38:36.282Z,12.44
2023-04-18T15:43:45.031Z,12.38
2023-04-18T15:48:53.883Z,12.25
2023-04-18T16:30:08.746Z,12.31
2023-04-18T16:35:19.255Z,12.19
2023-04-18T16:40:28.938Z,12.12
2023-04-18T16:45:38.681Z,11.94
2023-04-18T16:50:47.165Z,11.81
2023-04-18T16:55:56.937Z,11.94
2023-04-18T17:01:06.682Z,11.81
2023-04-18T17:06:16.457Z,11.75
2023-04-18T17:11:24.915Z,11.81
2023-04-18T17:16:35.440Z,11.75
2023-04-18T17:21:44.443Z,11.62
2023-04-18T17:26:58.010Z,11.62
2023-04-18T17:32:04.687Z,11.5
2023-04-18T17:37:13.074Z,11.5
2023-04-18T17:42:22.845Z,11.5
2023-04-18T17:47:32.010Z,11.44
2023-04-18T17:52:42.360Z,11.25
2023-04-18T17:57:51.485Z,11.12
2023-04-18T18:03:00.794Z,11.19
2023-04-18T18:08:09.080Z,11
2023-04-18T18:13:17.576Z,11
2023-04-18T18:18:26.689Z,11
2023-04-18T18:23:35.824Z,11.06
2023-04-18T18:28:45.547Z,11
2023-04-18T18:33:55.960Z,10.94
2023-04-18T18:39:04.447Z,10.69
2023-04-18T18:44:14.210Z,10.62
2023-04-18T18:49:22.043Z,10.5
2023-04-18T18:54:31.795Z,10.5
2023-04-18T18:59:40.938Z,10.44
2023-04-18T19:04:48.928Z,10.25
2023-04-18T19:09:59.169Z,10.31
2023-04-18T19:15:08.295Z,10.19
2023-04-18T19:20:18.689Z,10.12
2023-04-18T19:25:27.179Z,10.12
2023-04-18T19:30:37.563Z,10.06
2023-04-18T20:06:41.423Z,9.62
2023-04-18T20:11:51.914Z,9.62
2023-04-18T20:17:02.294Z,9.62
2023-04-18T20:22:11.974Z,9.62
2023-04-18T20:27:21.086Z,9.56
2023-04-18T20:32:29.601Z,9.62
2023-04-18T20:37:38.691Z,9.62
2023-04-18T20:42:48.434Z,9.62
2023-04-18T20:47:57.010Z,9.62
2023-04-18T20:53:05.417Z,9.5
2023-04-18T20:58:15.171Z,9.56
2023-04-18T21:03:23.977Z,9.62
2023-04-18T21:08:33.400Z,9.56
2023-04-18T21:13:44.454Z,9.69
2023-04-18T21:18:53.552Z,9.62
2023-04-18T21:24:02.042Z,9.56
2023-04-18T21:29:11.210Z,9.5
2023-04-18T21:34:20.275Z,9.5
2023-04-18T21:39:29.398Z,9.56
2023-04-18T21:44:37.888Z,9.75
2023-04-18T21:49:47.002Z,9.56
2023-04-18T21:54:56.773Z,9.62
2023-04-18T22:00:10.438Z,9.62
2023-04-18T22:05:16.296Z,9.56
2023-04-18T22:10:24.739Z,9.69
2023-04-18T22:15:33.880Z,9.62
2023-04-18T22:20:44.282Z,9.75
2023-04-18T22:25:52.759Z,9.75
2023-04-18T22:31:02.572Z,9.69
2023-04-18T22:36:11.618Z,9.75
2023-04-18T22:41:20.741Z,9.81
2023-04-18T22:46:29.990Z,9.88
2023-04-18T22:51:38.396Z,9.81
2023-04-18T22:56:46.240Z,9.94
2023-04-18T23:01:56.146Z,9.94
2023-04-18T23:07:05.724Z,9.94
2023-04-18T23:12:14.211Z,10.06
2023-04-18T23:53:26.616Z,10.12
2023-04-18T23:58:37.661Z,10
